Time;durP1;ratioP1;P1;durP2;ratioP2;P2;SDS_P1;SDS_P2;PMS_P1;PMS_P2;Temp;Humidity;BMP_temperature;BMP_pressure;BME280_temperature;BME280_humidity;BME280_pressure;Samples;Min_cycle;Max_cycle;Signal;HPM_P1;HPM_P2
2023/10/12 00:00:47;;;;;;;15.65;9.77;;;;;;;;;;5053292;28;20021;-74
2023/10/12 00:03:16;;;;;;;14.23;9.70;;;;;;;;;;5053265;28;20547;-74
2023/10/12 00:05:46;;;;;;;19.25;10.13;;;;;;;;;;5052710;28;20021;-74
2023/10/12 00:08:30;;;;;;;17.75;10.23;;;;;;;;;;5053193;28;20531;-74
2023/10/12 00:10:57;;;;;;;17.25;10.63;;;;;;;;;;5051548;28;20040;-74
2023/10/12 00:13:28;;;;;;;14.18;10.73;;;;;;;;;;5052919;28;20031;-74
2023/10/12 00:15:56;;;;;;;15.15;10.95;;;;;;;;;;5053043;28;20474;-74
2023/10/12 00:18:22;;;;;;;15.82;10.82;;;;;;;;;;5053024;28;20478;-74
2023/10/12 00:20:54;;;;;;;14.15;9.68;;;;;;;;;;5053170;28;20027;-74
2023/10/12 00:23:21;;;;;;;21.10;10.77;;;;;;;;;;5052912;28;20025;-74
2023/10/12 00:25:54;;;;;;;17.40;11.00;;;;;;;;;;5052432;28;20025;-74
2023/10/12 00:28:22;;;;;;;18.05;10.90;;;;;;;;;;5052756;28;20024;-74
2023/10/12 00:30:54;;;;;;;15.73;10.68;;;;;;;;;;5052756;28;20032;-74
2023/10/12 00:33:39;;;;;;;15.38;10.73;;;;;;;;;;5053052;28;20437;-74
2023/10/12 00:36:19;;;;;;;16.40;10.80;;;;;;;;;;5052604;28;20031;-74
2023/10/12 00:39:09;;;;;;;15.88;10.27;;;;;;;;;;5052915;28;20047;-74
2023/10/12 00:41:44;;;;;;;15.60;10.45;;;;;;;;;;5052305;28;20027;-74
2023/10/12 00:44:12;;;;;;;14.80;10.13;;;;;;;;;;5084809;28;20032;-74
2023/10/12 00:49:19;;;;;;;15.07;9.82;;;;;;;;;;5052602;28;20035;-74
2023/10/12 00:51:54;;;;;;;17.60;10.73;;;;;;;;;;5051458;28;20017;-74
2023/10/12 00:54:43;;;;;;;14.55;10.35;;;;;;;;;;5052479;28;20078;-74
2023/10/12 00:57:09;;;;;;;14.98;9.68;;;;;;;;;;5052262;28;20055;-74
2023/10/12 00:59:37;;;;;;;15.73;10.05;;;;;;;;;;5052583;28;20201;-74
2023/10/12 01:02:08;;;;;;;15.98;10.70;;;;;;;;;;5052573;28;20029;-74
2023/10/12 01:04:41;;;;;;;13.50;10.25;;;;;;;;;;5052787;28;20082;-74
2023/10/12 01:07:19;;;;;;;16.63;10.02;;;;;;;;;;5052698;28;20024;-74
2023/10/12 01:09:49;;;;;;;14.90;10.43;;;;;;;;;;5052059;28;20013;-74
2023/10/12 01:12:17;;;;;;;16.48;9.95;;;;;;;;;;5051181;28;20025;-74
2023/10/12 01:14:47;;;;;;;13.55;10.20;;;;;;;;;;5052405;28;20033;-74
2023/10/12 01:17:18;;;;;;;13.15;9.80;;;;;;;;;;5052431;28;20025;-74
2023/10/12 01:19:47;;;;;;;18.23;10.87;;;;;;;;;;5056266;28;20033;-74
2023/10/12 01:22:13;;;;;;;12.52;10.00;;;;;;;;;;5056257;28;20264;-74
2023/10/12 01:24:57;;;;;;;13.13;9.85;;;;;;;;;;5055072;28;20031;-74
2023/10/12 01:27:25;;;;;;;15.77;10.23;;;;;;;;;;5056169;28;20363;-74
2023/10/12 01:29:52;;;;;;;17.50;10.00;;;;;;;;;;5056235;28;20550;-74
2023/10/12 01:35:26;;;;;;;16.88;11.77;;;;;;;;;;5056104;28;20497;-74
2023/10/12 01:37:48;;;;;;;16.00;10.90;;;;;;;;;;5054217;28;20045;-74
2023/10/12 01:40:21;;;;;;;15.10;11.07;;;;;;;;;;5054700;28;20028;-73
2023/10/12 01:45:19;;;;;;;14.93;11.32;;;;;;;;;;5055894;28;20028;-73
2023/10/12 01:47:45;;;;;;;;;;;;;;;;;;5056537;28;20016;-74
2023/10/12 01:50:11;;;;;;;17.85;11.77;;;;;;;;;;5056108;28;19911;-74
2023/10/12 01:52:38;;;;;;;15.38;10.65;;;;;;;;;;5055402;28;20029;-74
2023/10/12 01:55:15;;;;;;;15.48;10.05;;;;;;;;;;5055972;28;20033;-74
2023/10/12 01:58:05;;;;;;;14.88;10.48;;;;;;;;;;5055244;28;20051;-74
2023/10/12 02:00:39;;;;;;;18.50;11.85;;;;;;;;;;5055329;28;20394;-74
2023/10/12 02:03:18;;;;;;;14.23;10.50;;;;;;;;;;5055753;28;20029;-74
2023/10/12 02:05:58;;;;;;;13.90;10.25;;;;;;;;;;5054516;28;20027;-73
2023/10/12 02:08:32;;;;;;;14.90;10.07;;;;;;;;;;5055409;28;20059;-73
2023/10/12 02:13:34;;;;;;;14.48;10.05;;;;;;;;;;5055598;28;20055;-74
2023/10/12 02:16:02;;;;;;;15.30;10.15;;;;;;;;;;5055318;28;20029;-74
2023/10/12 02:18:30;;;;;;;14.85;10.82;;;;;;;;;;5055303;28;20037;-73
2023/10/12 02:23:36;;;;;;;14.35;10.10;;;;;;;;;;5055202;28;20012;-74
2023/10/12 02:26:52;;;;;;;17.08;10.48;;;;;;;;;;5055278;28;20021;-74
2023/10/12 02:29:03;;;;;;;15.95;10.82;;;;;;;;;;5049452;28;20045;-74
2023/10/12 02:31:29;;;;;;;15.48;10.07;;;;;;;;;;5055515;28;20025;-74
2023/10/12 02:33:56;;;;;;;15.15;10.18;;;;;;;;;;5053865;28;20474;-74
2023/10/12 02:36:26;;;;;;;14.25;10.82;;;;;;;;;;5054595;28;20028;-74
2023/10/12 02:38:54;;;;;;;14.95;9.10;;;;;;;;;;5054852;28;20025;-73
2023/10/12 02:41:24;;;;;;;13.80;9.98;;;;;;;;;;5054826;28;20021;-74
2023/10/12 02:43:54;;;;;;;15.97;11.07;;;;;;;;;;5054870;28;20401;-74
2023/10/12 02:46:22;;;;;;;14.45;9.82;;;;;;;;;;5054741;28;20424;-74
2023/10/12 02:48:51;;;;;;;14.88;10.18;;;;;;;;;;5054920;28;20036;-74
2023/10/12 02:51:22;;;;;;;17.23;11.07;;;;;;;;;;5054356;28;20025;-74
2023/10/12 02:53:50;;;;;;;15.55;10.30;;;;;;;;;;5054800;28;20393;-74
2023/10/12 02:56:24;;;;;;;16.40;10.73;;;;;;;;;;5055043;28;20045;-74
2023/10/12 02:58:50;;;;;;;16.40;10.48;;;;;;;;;;5054555;28;20021;-74
2023/10/12 03:01:19;;;;;;;15.85;11.00;;;;;;;;;;5054446;28;20020;-74
2023/10/12 03:03:48;;;;;;;16.10;11.15;;;;;;;;;;5054542;28;20036;-74
2023/10/12 03:06:23;;;;;;;16.27;11.10;;;;;;;;;;5054107;28;20021;-74
2023/10/12 03:11:26;;;;;;;28.42;10.57;;;;;;;;;;5054583;28;20405;-74
2023/10/12 03:16:42;;;;;;;17.35;10.30;;;;;;;;;;5054205;28;20033;-73
2023/10/12 03:19:21;;;;;;;13.93;10.20;;;;;;;;;;5054442;28;20074;-73
2023/10/12 03:21:48;;;;;;;14.98;10.10;;;;;;;;;;5054254;28;20013;-74
2023/10/12 03:24:15;;;;;;;16.73;10.20;;;;;;;;;;5054264;28;20029;-74
2023/10/12 03:26:47;;;;;;;17.50;10.25;;;;;;;;;;5054327;28;20025;-73
2023/10/12 03:37:01;;;;;;;19.20;11.70;;;;;;;;;;5053713;28;20049;-73
2023/10/12 03:39:30;;;;;;;15.45;10.15;;;;;;;;;;5053799;28;20017;-73
2023/10/12 03:52:20;;;;;;;14.70;9.73;;;;;;;;;;5053987;28;20031;-73
2023/10/12 04:05:20;;;;;;;16.08;9.43;;;;;;;;;;5053567;28;20021;-73
2023/10/12 04:13:08;;;;;;;14.07;9.73;;;;;;;;;;5053062;28;20442;-74
2023/10/12 04:18:28;;;;;;;15.68;10.23;;;;;;;;;;5030475;28;20534;-74
2023/10/12 04:20:58;;;;;;;15.70;10.35;;;;;;;;;;5030789;28;20043;-73
2023/10/12 04:28:56;;;;;;;16.90;10.02;;;;;;;;;;5030555;28;20025;-73
2023/10/12 04:39:16;;;;;;;14.52;9.95;;;;;;;;;;5047235;28;20445;-74
2023/10/12 04:45:01;;;;;;;17.50;10.20;;;;;;;;;;5030588;28;20493;-73
2023/10/12 04:47:16;;;;;;;12.55;9.38;;;;;;;;;;5028288;28;20038;-73
2023/10/12 04:54:49;;;;;;;18.02;9.57;;;;;;;;;;5031005;28;20036;-74
2023/10/12 04:57:16;;;;;;;16.25;9.77;;;;;;;;;;5034171;28;20049;-74
2023/10/12 04:59:44;;;;;;;15.18;9.02;;;;;;;;;;5052482;28;20032;-74
2023/10/12 05:02:55;;;;;;;14.45;9.45;;;;;;;;;;5052056;28;20474;-74
2023/10/12 05:07:40;;;;;;;12.55;9.18;;;;;;;;;;5052326;28;20021;-74
2023/10/12 05:10:14;;;;;;;15.98;9.68;;;;;;;;;;5052440;28;20027;-74
2023/10/12 05:12:40;;;;;;;20.00;9.85;;;;;;;;;;5052515;28;20027;-74
2023/10/12 05:15:11;;;;;;;14.13;9.43;;;;;;;;;;5051901;28;20025;-74
2023/10/12 05:17:37;;;;;;;16.70;9.88;;;;;;;;;;5052273;28;20032;-74
2023/10/12 05:20:04;;;;;;;15.68;9.43;;;;;;;;;;5052300;28;20478;-74
2023/10/12 05:22:30;;;;;;;14.25;9.68;;;;;;;;;;5052473;28;20089;-74
2023/10/12 05:24:56;;;;;;;17.42;10.55;;;;;;;;;;5052480;28;20031;-73
2023/10/12 05:27:28;;;;;;;15.60;9.77;;;;;;;;;;5052112;28;20078;-73
2023/10/12 05:30:05;;;;;;;11.77;8.70;;;;;;;;;;5050871;28;20027;-73
2023/10/12 05:32:42;;;;;;;15.52;10.02;;;;;;;;;;5051125;28;20021;-74
2023/10/12 05:35:15;;;;;;;16.92;10.27;;;;;;;;;;5052131;28;20486;-74
2023/10/12 05:37:49;;;;;;;13.20;8.48;;;;;;;;;;5052011;28;20043;-74
2023/10/12 05:40:16;;;;;;;15.85;9.27;;;;;;;;;;5051902;28;20036;-73
2023/10/12 05:42:46;;;;;;;13.18;8.77;;;;;;;;;;5052392;28;20086;-74
2023/10/12 05:45:22;;;;;;;13.18;9.45;;;;;;;;;;5051951;28;20021;-74
2023/10/12 05:47:52;;;;;;;13.35;9.23;;;;;;;;;;5051969;28;20086;-74
2023/10/12 05:50:23;;;;;;;14.60;9.55;;;;;;;;;;5052190;28;20039;-74
2023/10/12 05:53:06;;;;;;;16.23;9.77;;;;;;;;;;5052097;28;20085;-73
2023/10/12 05:55:33;;;;;;;17.30;9.93;;;;;;;;;;5048483;28;20512;-74
2023/10/12 05:58:11;;;;;;;14.63;8.80;;;;;;;;;;5051462;28;20043;-74
2023/10/12 06:00:52;;;;;;;17.63;10.25;;;;;;;;;;5050916;28;20025;-73
2023/10/12 06:03:21;;;;;;;;;;;;;;;;;;5051531;28;20021;-73
2023/10/12 06:05:48;;;;;;;14.85;9.10;;;;;;;;;;5055110;28;19904;-73
2023/10/12 06:08:16;;;;;;;15.02;9.60;;;;;;;;;;5054642;28;20021;-76
2023/10/12 06:10:43;;;;;;;16.55;9.60;;;;;;;;;;5053281;28;20040;-75
2023/10/12 06:13:10;;;;;;;15.80;9.88;;;;;;;;;;5050178;28;20027;-76
2023/10/12 06:15:40;;;;;;;20.73;9.73;;;;;;;;;;5046154;28;20029;-73
2023/10/12 06:18:21;;;;;;;17.15;9.38;;;;;;;;;;5053854;28;20028;-73
2023/10/12 06:21:06;;;;;;;17.98;9.60;;;;;;;;;;5052335;28;20028;-73
2023/10/12 06:23:39;;;;;;;18.55;9.95;;;;;;;;;;5038836;28;20036;-72
2023/10/12 06:26:09;;;;;;;22.75;9.13;;;;;;;;;;5051846;28;20013;-73
2023/10/12 06:28:38;;;;;;;18.67;9.20;;;;;;;;;;5048388;28;20034;-73
2023/10/12 06:31:07;;;;;;;20.83;9.27;;;;;;;;;;5051839;28;20043;-72
2023/10/12 06:33:34;;;;;;;18.95;9.82;;;;;;;;;;5053570;28;20031;-72
2023/10/12 06:36:01;;;;;;;22.23;9.43;;;;;;;;;;5053887;28;20033;-73
2023/10/12 06:44:12;;;;;;;17.58;8.20;;;;;;;;;;5053419;28;20028;-72
2023/10/12 06:46:45;;;;;;;15.98;8.77;;;;;;;;;;5044514;28;20017;-74
2023/10/12 06:49:18;;;;;;;14.45;8.38;;;;;;;;;;5053310;28;20031;-74
2023/10/12 06:52:00;;;;;;;18.85;8.70;;;;;;;;;;5053680;28;20033;-74
2023/10/12 06:54:49;;;;;;;13.57;8.85;;;;;;;;;;5053252;28;20035;-73
2023/10/12 07:02:24;;;;;;;15.85;8.23;;;;;;;;;;5038861;28;20033;-73
2023/10/12 07:04:54;;;;;;;15.43;8.23;;;;;;;;;;5052921;28;20021;-73
2023/10/12 07:07:29;;;;;;;16.50;7.93;;;;;;;;;;5053199;28;20043;-74
2023/10/12 07:10:13;;;;;;;11.88;7.97;;;;;;;;;;5052959;28;20486;-73
2023/10/12 07:12:43;;;;;;;13.52;8.05;;;;;;;;;;5052527;28;20385;-73
2023/10/12 07:15:14;;;;;;;11.77;7.57;;;;;;;;;;5052890;28;20496;-73
2023/10/12 07:17:48;;;;;;;;;;;;;;;;;;5053009;28;20025;-74
2023/10/12 07:20:40;;;;;;;14.25;7.90;;;;;;;;;;5038229;28;19905;-72
2023/10/12 07:23:15;;;;;;;13.25;8.52;;;;;;;;;;5032718;28;20532;-73
2023/10/12 07:25:48;;;;;;;14.90;8.13;;;;;;;;;;5047478;28;20027;-73
2023/10/12 07:28:19;;;;;;;15.00;7.75;;;;;;;;;;5052375;28;20405;-72
2023/10/12 07:33:32;;;;;;;18.38;8.65;;;;;;;;;;5050898;28;20020;-72
2023/10/12 07:36:17;;;;;;;20.20;8.32;;;;;;;;;;5049385;28;20021;-74
2023/10/12 07:38:45;;;;;;;12.30;7.45;;;;;;;;;;5032177;28;20041;-74
2023/10/12 07:41:12;;;;;;;12.65;7.82;;;;;;;;;;5037401;28;20033;-72
2023/10/12 07:43:38;;;;;;;12.65;8.15;;;;;;;;;;5052115;28;20033;-73
2023/10/12 07:46:24;;;;;;;12.77;8.15;;;;;;;;;;5051796;28;20032;-73
2023/10/12 07:48:51;;;;;;;11.05;7.50;;;;;;;;;;5051669;28;20029;-74
2023/10/12 07:51:30;;;;;;;16.40;7.63;;;;;;;;;;5058748;28;20023;-73
2023/10/12 07:54:00;;;;;;;13.25;8.30;;;;;;;;;;5050051;28;20029;-73
2023/10/12 07:56:40;;;;;;;12.10;7.27;;;;;;;;;;5039766;28;20063;-72
2023/10/12 07:59:13;;;;;;;12.70;7.07;;;;;;;;;;5051669;28;20037;-73
2023/10/12 08:01:47;;;;;;;11.50;7.13;;;;;;;;;;5051568;28;20025;-74
2023/10/12 08:04:29;;;;;;;15.32;7.55;;;;;;;;;;5051484;28;20500;-74
2023/10/12 08:06:56;;;;;;;10.00;7.53;;;;;;;;;;5051247;28;20033;-74
2023/10/12 08:11:53;;;;;;;11.15;7.32;;;;;;;;;;5048685;28;20025;-73
2023/10/12 08:14:39;;;;;;;14.90;7.47;;;;;;;;;;5051100;28;20023;-74
2023/10/12 08:20:43;;;;;;;10.95;7.43;;;;;;;;;;5049520;28;20033;-74
2023/10/12 08:22:43;;;;;;;13.43;7.80;;;;;;;;;;5040422;28;20086;-74
2023/10/12 08:25:09;;;;;;;11.38;7.47;;;;;;;;;;5045380;28;20035;-74
2023/10/12 08:27:52;;;;;;;16.55;8.35;;;;;;;;;;5045714;28;20524;-74
2023/10/12 08:30:23;;;;;;;12.60;7.63;;;;;;;;;;5050988;28;20476;-74
2023/10/12 08:32:58;;;;;;;14.57;7.63;;;;;;;;;;5037746;28;20041;-74
2023/10/12 08:35:39;;;;;;;15.73;7.78;;;;;;;;;;5033045;28;20029;-74
2023/10/12 08:38:12;;;;;;;10.48;7.47;;;;;;;;;;5050442;28;20037;-74
2023/10/12 08:40:53;;;;;;;18.35;7.68;;;;;;;;;;5041247;28;20013;-74
2023/10/12 08:43:34;;;;;;;;;;;;;;;;;;5031444;28;20030;-73
2023/10/12 08:46:06;;;;;;;11.55;7.85;;;;;;;;;;5037642;28;19905;-74
2023/10/12 08:48:35;;;;;;;20.95;8.18;;;;;;;;;;5050665;28;20021;-74
2023/10/12 08:51:09;;;;;;;17.92;8.18;;;;;;;;;;5050553;28;20025;-74
2023/10/12 08:53:39;;;;;;;15.85;7.45;;;;;;;;;;5049624;28;20013;-73
2023/10/12 08:56:08;;;;;;;23.48;7.72;;;;;;;;;;5050828;28;20037;-74
2023/10/12 08:58:46;;;;;;;12.98;7.45;;;;;;;;;;5050336;28;20043;-74
2023/10/12 09:01:22;;;;;;;14.65;8.05;;;;;;;;;;5046408;28;20030;-74
2023/10/12 09:03:53;;;;;;;11.57;6.95;;;;;;;;;;5030792;28;20025;-74
2023/10/12 09:09:01;;;;;;;9.38;7.20;;;;;;;;;;5049605;28;20103;-74
2023/10/12 09:11:34;;;;;;;11.77;7.32;;;;;;;;;;5050581;28;20024;-74
2023/10/12 09:14:01;;;;;;;9.18;6.88;;;;;;;;;;5049317;28;20041;-74
2023/10/12 09:16:28;;;;;;;8.52;7.10;;;;;;;;;;5049819;28;20013;-74
2023/10/12 09:18:57;;;;;;;8.75;7.65;;;;;;;;;;5039534;28;20042;-74
2023/10/12 09:26:30;;;;;;;10.60;7.53;;;;;;;;;;5047113;28;20025;-73
2023/10/12 09:29:08;;;;;;;11.57;7.18;;;;;;;;;;5072152;28;20409;-74
2023/10/12 09:36:38;;;;;;;13.48;6.85;;;;;;;;;;5051057;28;20029;-75
2023/10/12 09:39:14;;;;;;;10.15;7.05;;;;;;;;;;5060691;28;20062;-74
2023/10/12 09:41:55;;;;;;;17.42;7.13;;;;;;;;;;5045149;28;20033;-74
2023/10/12 09:44:26;;;;;;;;;;;;;;;;;;5042044;28;20033;-75
2023/10/12 09:46:55;;;;;;;14.73;7.10;;;;;;;;;;5051293;28;19915;-75
2023/10/12 09:49:22;;;;;;;11.95;6.88;;;;;;;;;;5054134;28;20013;-75
2023/10/12 09:51:59;;;;;;;9.27;6.22;;;;;;;;;;5052700;28;20025;-75
2023/10/12 09:54:45;;;;;;;19.58;6.40;;;;;;;;;;5053670;28;20023;-75
2023/10/12 09:57:27;;;;;;;12.88;6.00;;;;;;;;;;5052513;28;20071;-76
2023/10/12 09:59:59;;;;;;;11.52;6.00;;;;;;;;;;5053863;28;20511;-75
2023/10/12 10:02:29;;;;;;;12.02;6.10;;;;;;;;;;5053633;28;20036;-75
2023/10/12 10:07:39;;;;;;;9.73;6.32;;;;;;;;;;5050334;28;20047;-75
2023/10/12 10:10:16;;;;;;;12.70;6.07;;;;;;;;;;5052505;28;20032;-75
2023/10/12 10:12:42;;;;;;;9.27;5.97;;;;;;;;;;5053807;28;20063;-76
2023/10/12 10:15:20;;;;;;;13.73;6.88;;;;;;;;;;5053771;28;20023;-75
2023/10/12 10:17:53;;;;;;;9.20;6.10;;;;;;;;;;5069015;28;20025;-76
2023/10/12 10:22:56;;;;;;;8.07;6.03;;;;;;;;;;5073096;28;20054;-76
2023/10/12 10:25:27;;;;;;;12.13;6.00;;;;;;;;;;5073744;28;20024;-76
2023/10/12 10:27:56;;;;;;;11.13;6.45;;;;;;;;;;5049432;28;20063;-76
2023/10/12 10:30:36;;;;;;;7.75;5.30;;;;;;;;;;5053051;28;20022;-76
2023/10/12 10:33:12;;;;;;;11.43;5.80;;;;;;;;;;5053464;28;20028;-76
2023/10/12 10:35:57;;;;;;;13.70;5.47;;;;;;;;;;5069934;28;20441;-76
2023/10/12 10:38:32;;;;;;;8.30;5.50;;;;;;;;;;5073150;28;20452;-76
2023/10/12 10:41:08;;;;;;;7.47;5.15;;;;;;;;;;5073369;28;20025;-76
2023/10/12 10:43:38;;;;;;;9.93;5.10;;;;;;;;;;5073314;28;20033;-76
2023/10/12 10:46:09;;;;;;;11.00;5.32;;;;;;;;;;5073608;28;20017;-76
2023/10/12 10:48:39;;;;;;;7.95;5.40;;;;;;;;;;5072868;28;20404;-77
2023/10/12 10:51:18;;;;;;;10.45;5.05;;;;;;;;;;5072664;28;20020;-76
2023/10/12 10:53:52;;;;;;;11.05;5.80;;;;;;;;;;5071873;28;20032;-77
2023/10/12 10:56:32;;;;;;;12.00;5.70;;;;;;;;;;5072828;28;20044;-76
2023/10/12 10:59:01;;;;;;;9.23;5.47;;;;;;;;;;5068487;28;20021;-76
2023/10/12 11:01:28;;;;;;;12.00;5.47;;;;;;;;;;5052800;28;20413;-76
2023/10/12 11:03:58;;;;;;;8.27;4.75;;;;;;;;;;5052568;28;20029;-76
2023/10/12 11:06:27;;;;;;;11.90;4.95;;;;;;;;;;5052520;28;20436;-76
2023/10/12 11:09:14;;;;;;;11.67;5.50;;;;;;;;;;5052459;28;20044;-76
2023/10/12 11:11:49;;;;;;;6.72;5.20;;;;;;;;;;5052745;28;20078;-77
2023/10/12 11:14:18;;;;;;;9.07;5.25;;;;;;;;;;5052573;28;20037;-77
2023/10/12 11:16:48;;;;;;;5.95;5.05;;;;;;;;;;5053018;28;20013;-77
2023/10/12 11:19:18;;;;;;;5.95;4.55;;;;;;;;;;5052269;28;20029;-77
2023/10/12 11:21:57;;;;;;;9.25;4.80;;;;;;;;;;5052553;28;20356;-77
2023/10/12 11:24:24;;;;;;;7.00;4.72;;;;;;;;;;5052715;28;20067;-77
2023/10/12 11:26:51;;;;;;;6.07;4.20;;;;;;;;;;5052395;28;20032;-77
2023/10/12 11:29:18;;;;;;;10.75;4.75;;;;;;;;;;5052433;28;20025;-78
2023/10/12 11:31:46;;;;;;;8.27;4.82;;;;;;;;;;5052510;28;20017;-77
2023/10/12 11:34:23;;;;;;;8.48;4.22;;;;;;;;;;5049568;28;20023;-79
2023/10/12 11:36:57;;;;;;;8.00;3.85;;;;;;;;;;5051585;28;20025;-79
2023/10/12 11:39:28;;;;;;;9.27;4.22;;;;;;;;;;5052388;28;20056;-79
2023/10/12 11:42:04;;;;;;;5.38;4.10;;;;;;;;;;5052425;28;20031;-79
2023/10/12 11:44:42;;;;;;;6.30;4.20;;;;;;;;;;5052120;28;20554;-79
2023/10/12 11:47:10;;;;;;;6.65;4.15;;;;;;;;;;5051842;28;20037;-78
2023/10/12 11:49:58;;;;;;;7.20;3.72;;;;;;;;;;5052695;28;20029;-80
2023/10/12 11:52:37;;;;;;;7.47;4.40;;;;;;;;;;5046760;28;20022;-80
2023/10/12 11:55:06;;;;;;;5.25;3.95;;;;;;;;;;5047946;28;20063;-79
2023/10/12 11:57:40;;;;;;;7.60;3.72;;;;;;;;;;5051081;28;20062;-79
2023/10/12 12:00:21;;;;;;;6.68;4.20;;;;;;;;;;5051160;28;20035;-79
2023/10/12 12:02:52;;;;;;;7.40;4.00;;;;;;;;;;5050314;28;20025;-79
2023/10/12 12:05:22;;;;;;;5.70;4.18;;;;;;;;;;5051162;28;20021;-80
2023/10/12 12:07:51;;;;;;;8.48;3.88;;;;;;;;;;5049891;28;20508;-80
2023/10/12 12:10:24;;;;;;;8.30;3.88;;;;;;;;;;5039288;28;20025;-80
2023/10/12 12:12:52;;;;;;;5.28;3.60;;;;;;;;;;5050101;28;20037;-81
2023/10/12 12:15:19;;;;;;;7.93;3.92;;;;;;;;;;5034139;28;20511;-81
2023/10/12 12:17:46;;;;;;;7.55;3.72;;;;;;;;;;5050135;28;20492;-81
2023/10/12 12:20:21;;;;;;;7.10;3.90;;;;;;;;;;5048497;28;20506;-82
2023/10/12 12:22:50;;;;;;;5.88;4.10;;;;;;;;;;5051243;28;20021;-82
2023/10/12 12:25:31;;;;;;;7.22;3.40;;;;;;;;;;5046478;28;20509;-82
2023/10/12 12:28:04;;;;;;;4.80;3.50;;;;;;;;;;5038818;28;20041;-81
2023/10/12 12:30:46;;;;;;;4.50;3.90;;;;;;;;;;5050847;28;20046;-81
2023/10/12 12:33:16;;;;;;;4.32;3.83;;;;;;;;;;5051655;28;20222;-81
2023/10/12 12:35:45;;;;;;;5.47;3.58;;;;;;;;;;5049608;28;20137;-82
2023/10/12 12:40:59;;;;;;;5.80;3.20;;;;;;;;;;5050839;28;20377;-82
2023/10/12 12:43:26;;;;;;;9.48;3.75;;;;;;;;;;5049729;28;20017;-81
2023/10/12 12:45:53;;;;;;;5.75;3.78;;;;;;;;;;5048149;28;20086;-81
2023/10/12 12:48:19;;;;;;;7.40;3.80;;;;;;;;;;5051042;28;20033;-81
2023/10/12 12:50:48;;;;;;;5.25;3.22;;;;;;;;;;5051103;28;20029;-81
2023/10/12 12:53:18;;;;;;;7.35;3.88;;;;;;;;;;5050879;28;20032;-81
2023/10/12 12:55:46;;;;;;;4.97;3.78;;;;;;;;;;5050641;28;20094;-81
2023/10/12 12:58:15;;;;;;;5.25;3.28;;;;;;;;;;5049754;28;20036;-81
2023/10/12 13:00:42;;;;;;;5.75;3.50;;;;;;;;;;5048392;28;20023;-81
2023/10/12 13:03:10;;;;;;;6.00;3.42;;;;;;;;;;5050561;28;20498;-82
2023/10/12 13:05:37;;;;;;;6.63;4.13;;;;;;;;;;5050801;28;20021;-82
2023/10/12 13:08:07;;;;;;;4.75;3.83;;;;;;;;;;5050872;28;20037;-82
2023/10/12 13:10:37;;;;;;;4.45;3.30;;;;;;;;;;5052137;28;20009;-81
2023/10/12 13:13:03;;;;;;;6.35;3.40;;;;;;;;;;5051833;28;20088;-82
2023/10/12 13:15:41;;;;;;;4.03;3.13;;;;;;;;;;5054570;28;20371;-82
2023/10/12 13:18:14;;;;;;;3.88;3.50;;;;;;;;;;5034707;28;20041;-82
2023/10/12 13:20:47;;;;;;;7.18;3.50;;;;;;;;;;5034478;28;20021;-78
2023/10/12 13:23:14;;;;;;;9.68;3.95;;;;;;;;;;5034670;28;20017;-82
2023/10/12 13:25:41;;;;;;;4.20;3.33;;;;;;;;;;5034596;28;20406;-81
2023/10/12 13:28:09;;;;;;;6.13;3.47;;;;;;;;;;5042869;28;20029;-81
2023/10/12 13:30:39;;;;;;;6.80;3.63;;;;;;;;;;5054513;28;20027;-81
2023/10/12 13:33:09;;;;;;;3.67;3.33;;;;;;;;;;5051011;28;20764;-81
2023/10/12 13:38:09;;;;;;;6.45;3.70;;;;;;;;;;5048537;28;19911;-82
2023/10/12 13:40:39;;;;;;;6.43;3.55;;;;;;;;;;5053352;28;20033;-82
2023/10/12 13:43:18;;;;;;;6.85;3.72;;;;;;;;;;5054177;28;20370;-82
2023/10/12 13:45:47;;;;;;;6.82;3.35;;;;;;;;;;5055025;28;20050;-82
2023/10/12 13:48:18;;;;;;;5.38;3.70;;;;;;;;;;5054134;28;20539;-82
2023/10/12 13:50:50;;;;;;;7.43;3.90;;;;;;;;;;5043980;28;20033;-82
2023/10/12 13:53:18;;;;;;;6.93;3.35;;;;;;;;;;5034257;28;20375;-82
2023/10/12 13:55:47;;;;;;;6.25;3.85;;;;;;;;;;5038590;28;20478;-82
2023/10/12 13:58:14;;;;;;;7.13;3.60;;;;;;;;;;5053967;28;20035;-82
2023/10/12 14:00:41;;;;;;;7.43;3.72;;;;;;;;;;5052487;28;20021;-82
2023/10/12 14:03:17;;;;;;;6.45;3.70;;;;;;;;;;5055970;28;20035;-82
2023/10/12 14:05:44;;;;;;;5.35;3.45;;;;;;;;;;5054010;28;20047;-81
2023/10/12 14:08:12;;;;;;;10.43;3.33;;;;;;;;;;5052587;28;20041;-81
2023/10/12 14:10:41;;;;;;;5.35;3.50;;;;;;;;;;5053284;28;20493;-81
2023/10/12 14:13:14;;;;;;;6.10;4.07;;;;;;;;;;5053288;28;20414;-81
2023/10/12 14:15:43;;;;;;;5.88;3.80;;;;;;;;;;5056442;28;20025;-80
2023/10/12 14:18:11;;;;;;;5.88;4.35;;;;;;;;;;5069881;28;20032;-80
2023/10/12 14:20:42;;;;;;;7.60;3.90;;;;;;;;;;5052291;28;20021;-80
2023/10/12 14:23:12;;;;;;;8.07;3.80;;;;;;;;;;5053371;28;20024;-80
2023/10/12 14:25:50;;;;;;;8.13;3.95;;;;;;;;;;5042260;28;20029;-80
2023/10/12 14:28:17;;;;;;;16.02;4.25;;;;;;;;;;5053107;28;20071;-80
2023/10/12 14:30:47;;;;;;;6.50;3.78;;;;;;;;;;5053443;28;20493;-81
2023/10/12 14:33:21;;;;;;;6.88;3.80;;;;;;;;;;5052023;28;20033;-80
2023/10/12 14:35:48;;;;;;;9.75;4.00;;;;;;;;;;5052898;28;20399;-80
2023/10/12 14:38:16;;;;;;;4.15;3.30;;;;;;;;;;5052949;28;20023;-80
2023/10/12 14:40:43;;;;;;;8.98;4.00;;;;;;;;;;5050579;28;20033;-81
2023/10/12 14:43:14;;;;;;;5.60;3.83;;;;;;;;;;5041729;28;20049;-79
2023/10/12 14:45:48;;;;;;;6.25;4.03;;;;;;;;;;5072613;28;20370;-80
2023/10/12 14:48:16;;;;;;;11.88;3.67;;;;;;;;;;5051595;28;20033;-79
2023/10/12 14:50:45;;;;;;;12.52;3.70;;;;;;;;;;5062961;28;20535;-80
2023/10/12 14:53:15;;;;;;;10.73;4.03;;;;;;;;;;5069306;28;20110;-79
2023/10/12 14:55:42;;;;;;;;;;;;;;;;;;5063292;28;20420;-79
2023/10/12 14:58:09;;;;;;;12.10;4.00;;;;;;;;;;5049090;28;19913;-79
2023/10/12 15:00:36;;;;;;;15.98;4.20;;;;;;;;;;5033349;28;20040;-79
2023/10/12 15:03:04;;;;;;;14.95;4.50;;;;;;;;;;5039244;28;20025;-79
2023/10/12 15:05:32;;;;;;;7.20;4.10;;;;;;;;;;5054694;28;20025;-78
2023/10/12 15:07:58;;;;;;;10.13;4.05;;;;;;;;;;5068823;28;20028;-79
2023/10/12 15:10:25;;;;;;;15.07;4.00;;;;;;;;;;5072595;28;20012;-78
2023/10/12 15:12:52;;;;;;;11.30;4.20;;;;;;;;;;5059102;28;20426;-78
2023/10/12 15:15:24;;;;;;;12.23;4.78;;;;;;;;;;5047568;28;20022;-78
2023/10/12 15:17:54;;;;;;;13.95;4.38;;;;;;;;;;5032810;28;20414;-78
2023/10/12 15:20:26;;;;;;;13.05;4.28;;;;;;;;;;5033231;28;20095;-78
2023/10/12 15:22:55;;;;;;;11.80;4.82;;;;;;;;;;5033141;28;20056;-78
2023/10/12 15:25:21;;;;;;;18.05;4.55;;;;;;;;;;5032935;28;20017;-78
2023/10/12 15:27:51;;;;;;;9.68;4.32;;;;;;;;;;5038557;28;20041;-78
2023/10/12 15:30:17;;;;;;;12.13;5.20;;;;;;;;;;5053359;28;20039;-78
2023/10/12 15:32:44;;;;;;;13.38;5.25;;;;;;;;;;5053455;28;20263;-78
2023/10/12 15:35:11;;;;;;;10.65;4.57;;;;;;;;;;5053116;28;20405;-78
2023/10/12 15:37:45;;;;;;;9.55;4.32;;;;;;;;;;5052290;28;20033;-78
2023/10/12 15:40:17;;;;;;;10.55;4.47;;;;;;;;;;5052651;28;20020;-78
2023/10/12 15:42:47;;;;;;;9.50;4.60;;;;;;;;;;5053472;28;20033;-78
2023/10/12 15:45:26;;;;;;;11.10;4.38;;;;;;;;;;5053519;28;20073;-78
2023/10/12 15:47:55;;;;;;;7.97;5.03;;;;;;;;;;5051819;28;20047;-78
2023/10/12 15:50:22;;;;;;;14.88;5.03;;;;;;;;;;5052823;28;20024;-77
2023/10/12 15:52:51;;;;;;;18.17;5.40;;;;;;;;;;5052927;28;20486;-78
2023/10/12 15:55:18;;;;;;;14.88;4.85;;;;;;;;;;5053023;28;20036;-77
2023/10/12 15:57:45;;;;;;;9.82;4.90;;;;;;;;;;5052662;28;20502;-77
2023/10/12 16:00:24;;;;;;;15.50;4.88;;;;;;;;;;5053019;28;20044;-78
2023/10/12 16:02:50;;;;;;;12.15;4.97;;;;;;;;;;5053019;28;20021;-77
2023/10/12 16:05:17;;;;;;;21.17;5.57;;;;;;;;;;5052872;28;20379;-77
2023/10/12 16:07:44;;;;;;;17.98;5.22;;;;;;;;;;5052020;28;20045;-77
2023/10/12 16:10:10;;;;;;;16.48;5.50;;;;;;;;;;5051803;28;20028;-78
2023/10/12 16:12:37;;;;;;;19.48;5.50;;;;;;;;;;5052970;28;20028;-78
2023/10/12 16:15:03;;;;;;;11.75;5.63;;;;;;;;;;5052301;28;20027;-77
2023/10/12 16:17:29;;;;;;;16.85;5.63;;;;;;;;;;5052673;28;20025;-77
2023/10/12 16:19:57;;;;;;;18.48;6.13;;;;;;;;;;5052457;28;20497;-77
2023/10/12 16:22:23;;;;;;;18.92;5.93;;;;;;;;;;5051913;28;20468;-76
2023/10/12 16:24:51;;;;;;;15.93;5.80;;;;;;;;;;5052292;28;20033;-76
2023/10/12 16:27:18;;;;;;;16.13;5.32;;;;;;;;;;5051904;28;20035;-76
2023/10/12 16:29:44;;;;;;;14.82;5.88;;;;;;;;;;5051060;28;20021;-77
2023/10/12 16:32:10;;;;;;;20.15;5.75;;;;;;;;;;5051723;28;20474;-76
2023/10/12 16:34:37;;;;;;;10.50;5.50;;;;;;;;;;5052185;28;20029;-76
2023/10/12 16:37:04;;;;;;;14.70;5.55;;;;;;;;;;5052243;28;20031;-76
2023/10/12 16:39:34;;;;;;;18.55;6.00;;;;;;;;;;5051196;28;20027;-76
2023/10/12 16:42:02;;;;;;;12.30;5.72;;;;;;;;;;5052537;28;20078;-76
2023/10/12 16:44:28;;;;;;;20.33;6.28;;;;;;;;;;5052740;28;20021;-76
2023/10/12 16:46:55;;;;;;;12.27;5.55;;;;;;;;;;5052911;28;20021;-76
2023/10/12 16:49:24;;;;;;;13.68;5.60;;;;;;;;;;5052281;28;20044;-76
2023/10/12 16:51:51;;;;;;;9.23;5.80;;;;;;;;;;5051060;28;20025;-76
2023/10/12 16:54:17;;;;;;;15.00;5.63;;;;;;;;;;5052833;28;20055;-76
2023/10/12 16:56:45;;;;;;;12.68;5.43;;;;;;;;;;5052408;28;20085;-76
2023/10/12 16:59:15;;;;;;;12.15;5.80;;;;;;;;;;5052503;28;20060;-76